<?xml version="1.0" encoding="UTF-8" standalone="no" ?>
<gpx xmlns="http://www.topografix.com/GPX/1/1" xmlns:xsi="http://www.w3.org/2001/XMLSchema-instance" xsi:schemaLocation="http://www.topografix.com/GPX/1/1 http://www.topografix.com/GPX/1/1/gpx.xsd" version="1.1" creator="VisuGPX - https://www.visugpx.com">
  <metadata>
    <name>Vallée de la Misère</name>
  </metadata>
  <trk>
    <name><![CDATA[OR-6366029--Saint-Léonard-des-Bois:La Vallée de la Misère]]></name>
    <trkseg>
      <trkpt lat="48.35006" lon="-0.07864">
        <ele>103</ele>
        <time>2016-08-26T16:50:03Z</time>
      </trkpt>
      <trkpt lat="48.34979" lon="-0.07855">
        <ele>104</ele>
        <time>2016-08-26T16:52:03Z</time>
      </trkpt>
      <trkpt lat="48.34978" lon="-0.07819">
        <ele>107</ele>
        <time>2016-08-26T16:54:03Z</time>
      </trkpt>
      <trkpt lat="48.34966" lon="-0.07798">
        <ele>109</ele>
        <time>2016-08-26T16:56:03Z</time>
      </trkpt>
      <trkpt lat="48.34964" lon="-0.07746">
        <ele>113</ele>
        <time>2016-08-26T16:58:03Z</time>
      </trkpt>
      <trkpt lat="48.34924" lon="-0.07641">
        <ele>127</ele>
        <time>2016-08-26T17:00:03Z</time>
      </trkpt>
      <trkpt lat="48.34931" lon="-0.07577">
        <ele>131</ele>
        <time>2016-08-26T17:02:03Z</time>
      </trkpt>
      <trkpt lat="48.34957" lon="-0.0751">
        <ele>132</ele>
        <time>2016-08-26T17:04:03Z</time>
      </trkpt>
      <trkpt lat="48.34987" lon="-0.07421">
        <ele>140</ele>
        <time>2016-08-26T17:06:03Z</time>
      </trkpt>
      <trkpt lat="48.35032" lon="-0.07336">
        <ele>146</ele>
        <time>2016-08-26T17:08:03Z</time>
      </trkpt>
      <trkpt lat="48.35022" lon="-0.07309">
        <ele>152</ele>
        <time>2016-08-26T17:10:03Z</time>
      </trkpt>
      <trkpt lat="48.35063" lon="-0.07238">
        <ele>165</ele>
        <time>2016-08-26T17:12:03Z</time>
      </trkpt>
      <trkpt lat="48.3518" lon="-0.07126">
        <ele>190</ele>
        <time>2016-08-26T17:14:03Z</time>
      </trkpt>
      <trkpt lat="48.35215" lon="-0.07124">
        <ele>196</ele>
        <time>2016-08-26T17:16:03Z</time>
      </trkpt>
      <trkpt lat="48.35223" lon="-0.07139">
        <ele>195</ele>
        <time>2016-08-26T17:18:03Z</time>
      </trkpt>
      <trkpt lat="48.35257" lon="-0.07139">
        <ele>199</ele>
        <time>2016-08-26T17:20:03Z</time>
      </trkpt>
      <trkpt lat="48.35395" lon="-0.0718">
        <ele>203</ele>
        <time>2016-08-26T17:22:03Z</time>
      </trkpt>
      <trkpt lat="48.35441" lon="-0.07221">
        <ele>199</ele>
        <time>2016-08-26T17:24:03Z</time>
      </trkpt>
      <trkpt lat="48.35511" lon="-0.0727">
        <ele>200</ele>
        <time>2016-08-26T17:26:03Z</time>
      </trkpt>
      <trkpt lat="48.35538" lon="-0.07306">
        <ele>196</ele>
        <time>2016-08-26T17:28:03Z</time>
      </trkpt>
      <trkpt lat="48.35549" lon="-0.07356">
        <ele>191</ele>
        <time>2016-08-26T17:30:03Z</time>
      </trkpt>
      <trkpt lat="48.35546" lon="-0.07398">
        <ele>185</ele>
        <time>2016-08-26T17:32:03Z</time>
      </trkpt>
      <trkpt lat="48.35555" lon="-0.07437">
        <ele>181</ele>
        <time>2016-08-26T17:34:03Z</time>
      </trkpt>
      <trkpt lat="48.35555" lon="-0.07473">
        <ele>175</ele>
        <time>2016-08-26T17:36:03Z</time>
      </trkpt>
      <trkpt lat="48.356" lon="-0.07536">
        <ele>176</ele>
        <time>2016-08-26T17:38:03Z</time>
      </trkpt>
      <trkpt lat="48.35646" lon="-0.07673">
        <ele>168</ele>
        <time>2016-08-26T17:40:03Z</time>
      </trkpt>
      <trkpt lat="48.35648" lon="-0.07811">
        <ele>153</ele>
        <time>2016-08-26T17:42:03Z</time>
      </trkpt>
      <trkpt lat="48.35641" lon="-0.07948">
        <ele>133</ele>
        <time>2016-08-26T17:44:03Z</time>
      </trkpt>
      <trkpt lat="48.35579" lon="-0.079">
        <ele>126</ele>
        <time>2016-08-26T17:46:03Z</time>
      </trkpt>
      <trkpt lat="48.35499" lon="-0.07854">
        <ele>112</ele>
        <time>2016-08-26T17:48:03Z</time>
      </trkpt>
      <trkpt lat="48.35459" lon="-0.07756">
        <ele>111</ele>
        <time>2016-08-26T17:50:03Z</time>
      </trkpt>
      <trkpt lat="48.3528" lon="-0.0771">
        <ele>108</ele>
        <time>2016-08-26T17:52:03Z</time>
      </trkpt>
      <trkpt lat="48.3524" lon="-0.07705">
        <ele>109</ele>
        <time>2016-08-26T17:54:03Z</time>
      </trkpt>
      <trkpt lat="48.35254" lon="-0.07769">
        <ele>113</ele>
        <time>2016-08-26T17:56:03Z</time>
      </trkpt>
      <trkpt lat="48.35269" lon="-0.07775">
        <ele>112</ele>
        <time>2016-08-26T17:58:03Z</time>
      </trkpt>
      <trkpt lat="48.35275" lon="-0.07841">
        <ele>116</ele>
        <time>2016-08-26T18:00:03Z</time>
      </trkpt>
      <trkpt lat="48.35277" lon="-0.07901">
        <ele>121</ele>
        <time>2016-08-26T18:02:03Z</time>
      </trkpt>
      <trkpt lat="48.35244" lon="-0.08042">
        <ele>147</ele>
        <time>2016-08-26T18:04:03Z</time>
      </trkpt>
      <trkpt lat="48.35278" lon="-0.08105">
        <ele>145</ele>
        <time>2016-08-26T18:06:03Z</time>
      </trkpt>
      <trkpt lat="48.35264" lon="-0.0821">
        <ele>159</ele>
        <time>2016-08-26T18:08:03Z</time>
      </trkpt>
      <trkpt lat="48.3526" lon="-0.08266">
        <ele>160</ele>
        <time>2016-08-26T18:10:03Z</time>
      </trkpt>
      <trkpt lat="48.35231" lon="-0.08362">
        <ele>161</ele>
        <time>2016-08-26T18:12:03Z</time>
      </trkpt>
      <trkpt lat="48.3522" lon="-0.08375">
        <ele>163</ele>
        <time>2016-08-26T18:14:03Z</time>
      </trkpt>
      <trkpt lat="48.35197" lon="-0.08478">
        <ele>164</ele>
        <time>2016-08-26T18:16:03Z</time>
      </trkpt>
      <trkpt lat="48.35193" lon="-0.08545">
        <ele>163</ele>
        <time>2016-08-26T18:18:03Z</time>
      </trkpt>
      <trkpt lat="48.35207" lon="-0.08613">
        <ele>158</ele>
        <time>2016-08-26T18:20:03Z</time>
      </trkpt>
      <trkpt lat="48.3516" lon="-0.08731">
        <ele>170</ele>
        <time>2016-08-26T18:22:03Z</time>
      </trkpt>
      <trkpt lat="48.35123" lon="-0.08815">
        <ele>168</ele>
        <time>2016-08-26T18:24:03Z</time>
      </trkpt>
      <trkpt lat="48.35159" lon="-0.08869">
        <ele>175</ele>
        <time>2016-08-26T18:26:03Z</time>
      </trkpt>
      <trkpt lat="48.35305" lon="-0.08931">
        <ele>162</ele>
        <time>2016-08-26T18:28:03Z</time>
      </trkpt>
      <trkpt lat="48.35318" lon="-0.08983">
        <ele>164</ele>
        <time>2016-08-26T18:30:03Z</time>
      </trkpt>
      <trkpt lat="48.35292" lon="-0.09101">
        <ele>180</ele>
        <time>2016-08-26T18:32:03Z</time>
      </trkpt>
      <trkpt lat="48.353" lon="-0.0918">
        <ele>186</ele>
        <time>2016-08-26T18:34:03Z</time>
      </trkpt>
      <trkpt lat="48.35277" lon="-0.09357">
        <ele>195</ele>
        <time>2016-08-26T18:36:03Z</time>
      </trkpt>
      <trkpt lat="48.35234" lon="-0.09225">
        <ele>185</ele>
        <time>2016-08-26T18:38:03Z</time>
      </trkpt>
      <trkpt lat="48.35208" lon="-0.09221">
        <ele>182</ele>
        <time>2016-08-26T18:40:03Z</time>
      </trkpt>
      <trkpt lat="48.35165" lon="-0.09195">
        <ele>178</ele>
        <time>2016-08-26T18:42:03Z</time>
      </trkpt>
      <trkpt lat="48.35157" lon="-0.0915">
        <ele>177</ele>
        <time>2016-08-26T18:44:03Z</time>
      </trkpt>
      <trkpt lat="48.35158" lon="-0.09087">
        <ele>178</ele>
        <time>2016-08-26T18:46:03Z</time>
      </trkpt>
      <trkpt lat="48.35155" lon="-0.09028">
        <ele>179</ele>
        <time>2016-08-26T18:48:03Z</time>
      </trkpt>
      <trkpt lat="48.35144" lon="-0.08962">
        <ele>175</ele>
        <time>2016-08-26T18:50:03Z</time>
      </trkpt>
      <trkpt lat="48.35131" lon="-0.08886">
        <ele>169</ele>
        <time>2016-08-26T18:52:03Z</time>
      </trkpt>
      <trkpt lat="48.35118" lon="-0.08819">
        <ele>167</ele>
        <time>2016-08-26T18:54:03Z</time>
      </trkpt>
      <trkpt lat="48.35111" lon="-0.08813">
        <ele>167</ele>
        <time>2016-08-26T18:56:03Z</time>
      </trkpt>
      <trkpt lat="48.35092" lon="-0.08735">
        <ele>175</ele>
        <time>2016-08-26T18:58:03Z</time>
      </trkpt>
      <trkpt lat="48.35043" lon="-0.08683">
        <ele>179</ele>
        <time>2016-08-26T19:00:03Z</time>
      </trkpt>
      <trkpt lat="48.34999" lon="-0.08654">
        <ele>181</ele>
        <time>2016-08-26T19:02:03Z</time>
      </trkpt>
      <trkpt lat="48.34871" lon="-0.08571">
        <ele>182</ele>
        <time>2016-08-26T19:04:03Z</time>
      </trkpt>
      <trkpt lat="48.34793" lon="-0.08532">
        <ele>174</ele>
        <time>2016-08-26T19:06:03Z</time>
      </trkpt>
      <trkpt lat="48.34772" lon="-0.085">
        <ele>175</ele>
        <time>2016-08-26T19:08:03Z</time>
      </trkpt>
      <trkpt lat="48.34748" lon="-0.08473">
        <ele>170</ele>
        <time>2016-08-26T19:10:03Z</time>
      </trkpt>
      <trkpt lat="48.34746" lon="-0.08448">
        <ele>170</ele>
        <time>2016-08-26T19:12:03Z</time>
      </trkpt>
      <trkpt lat="48.3475" lon="-0.08418">
        <ele>172</ele>
        <time>2016-08-26T19:14:03Z</time>
      </trkpt>
      <trkpt lat="48.34756" lon="-0.08382">
        <ele>172</ele>
        <time>2016-08-26T19:16:03Z</time>
      </trkpt>
      <trkpt lat="48.34756" lon="-0.08344">
        <ele>170</ele>
        <time>2016-08-26T19:18:03Z</time>
      </trkpt>
      <trkpt lat="48.34761" lon="-0.08315">
        <ele>169</ele>
        <time>2016-08-26T19:20:03Z</time>
      </trkpt>
      <trkpt lat="48.34774" lon="-0.08298">
        <ele>171</ele>
        <time>2016-08-26T19:22:03Z</time>
      </trkpt>
      <trkpt lat="48.34785" lon="-0.08263">
        <ele>172</ele>
        <time>2016-08-26T19:24:03Z</time>
      </trkpt>
      <trkpt lat="48.3479" lon="-0.08236">
        <ele>167</ele>
        <time>2016-08-26T19:26:03Z</time>
      </trkpt>
      <trkpt lat="48.34828" lon="-0.08237">
        <ele>175</ele>
        <time>2016-08-26T19:28:03Z</time>
      </trkpt>
      <trkpt lat="48.34838" lon="-0.08256">
        <ele>182</ele>
        <time>2016-08-26T19:30:03Z</time>
      </trkpt>
      <trkpt lat="48.3487" lon="-0.08269">
        <ele>184</ele>
        <time>2016-08-26T19:32:03Z</time>
      </trkpt>
      <trkpt lat="48.34921" lon="-0.08276">
        <ele>187</ele>
        <time>2016-08-26T19:34:03Z</time>
      </trkpt>
      <trkpt lat="48.34968" lon="-0.08267">
        <ele>186</ele>
        <time>2016-08-26T19:36:03Z</time>
      </trkpt>
      <trkpt lat="48.35017" lon="-0.08233">
        <ele>179</ele>
        <time>2016-08-26T19:38:03Z</time>
      </trkpt>
      <trkpt lat="48.35079" lon="-0.08179">
        <ele>170</ele>
        <time>2016-08-26T19:40:03Z</time>
      </trkpt>
      <trkpt lat="48.35113" lon="-0.08141">
        <ele>164</ele>
        <time>2016-08-26T19:42:03Z</time>
      </trkpt>
      <trkpt lat="48.35183" lon="-0.0816">
        <ele>173</ele>
        <time>2016-08-26T19:44:03Z</time>
      </trkpt>
      <trkpt lat="48.35182" lon="-0.08129">
        <ele>167</ele>
        <time>2016-08-26T19:46:03Z</time>
      </trkpt>
      <trkpt lat="48.35163" lon="-0.08104">
        <ele>162</ele>
        <time>2016-08-26T19:48:03Z</time>
      </trkpt>
      <trkpt lat="48.35143" lon="-0.0809">
        <ele>155</ele>
        <time>2016-08-26T19:50:03Z</time>
      </trkpt>
      <trkpt lat="48.35191" lon="-0.08077">
        <ele>156</ele>
        <time>2016-08-26T19:52:03Z</time>
      </trkpt>
      <trkpt lat="48.35215" lon="-0.08053">
        <ele>150</ele>
        <time>2016-08-26T19:54:03Z</time>
      </trkpt>
      <trkpt lat="48.35242" lon="-0.08049">
        <ele>148</ele>
        <time>2016-08-26T19:56:03Z</time>
      </trkpt>
      <trkpt lat="48.3524" lon="-0.08028">
        <ele>144</ele>
        <time>2016-08-26T19:58:03Z</time>
      </trkpt>
      <trkpt lat="48.35227" lon="-0.08004">
        <ele>139</ele>
        <time>2016-08-26T20:00:03Z</time>
      </trkpt>
      <trkpt lat="48.35204" lon="-0.07971">
        <ele>133</ele>
        <time>2016-08-26T20:02:03Z</time>
      </trkpt>
      <trkpt lat="48.3519" lon="-0.07944">
        <ele>128</ele>
        <time>2016-08-26T20:04:03Z</time>
      </trkpt>
      <trkpt lat="48.35188" lon="-0.079">
        <ele>122</ele>
        <time>2016-08-26T20:06:03Z</time>
      </trkpt>
      <trkpt lat="48.35182" lon="-0.07859">
        <ele>118</ele>
        <time>2016-08-26T20:08:03Z</time>
      </trkpt>
      <trkpt lat="48.35178" lon="-0.07806">
        <ele>114</ele>
        <time>2016-08-26T20:10:03Z</time>
      </trkpt>
      <trkpt lat="48.35161" lon="-0.07753">
        <ele>110</ele>
        <time>2016-08-26T20:12:03Z</time>
      </trkpt>
      <trkpt lat="48.3509" lon="-0.07821">
        <ele>105</ele>
        <time>2016-08-26T20:14:03Z</time>
      </trkpt>
      <trkpt lat="48.35074" lon="-0.07839">
        <ele>104</ele>
        <time>2016-08-26T20:16:03Z</time>
      </trkpt>
      <trkpt lat="48.35055" lon="-0.07852">
        <ele>104</ele>
        <time>2016-08-26T20:18:03Z</time>
      </trkpt>
      <trkpt lat="48.35039" lon="-0.07856">
        <ele>104</ele>
        <time>2016-08-26T20:20:03Z</time>
      </trkpt>
      <trkpt lat="48.35019" lon="-0.0786">
        <ele>103</ele>
        <time>2016-08-26T20:22:03Z</time>
      </trkpt>
      <trkpt lat="48.35007" lon="-0.07863">
        <ele>103</ele>
        <time>2016-08-26T20:24:03Z</time>
      </trkpt>
    </trkseg>
  </trk>
</gpx>